Time;durP1;ratioP1;P1;durP2;ratioP2;P2;SDS_P1;SDS_P2;PMS_P1;PMS_P2;Temp;Humidity;BMP_temperature;BMP_pressure;BME280_temperature;BME280_humidity;BME280_pressure;Samples;Min_cycle;Max_cycle;Signal;HPM_P1;HPM_P2
2022/11/16 00:02:19;;;;;;;0.40;0.40;;;10.30;99.90;;;;;;5067382;28;20083;-79
2022/11/16 00:04:45;;;;;;;0.15;0.15;;;10.30;99.90;;;;;;5067952;28;20072;-79
2022/11/16 00:07:10;;;;;;;0.47;0.45;;;10.40;99.90;;;;;;5068767;28;20071;-81
2022/11/16 00:09:38;;;;;;;0.20;0.05;;;10.30;99.90;;;;;;5068962;28;20056;-79
2022/11/16 00:12:05;;;;;;;2.70;1.30;;;10.30;99.90;;;;;;5068771;28;20454;-80
2022/11/16 00:14:34;;;;;;;0.55;0.47;;;10.30;99.90;;;;;;5066646;28;20052;-80
2022/11/16 00:17:00;;;;;;;0.35;0.35;;;10.30;99.90;;;;;;5049243;28;20046;-80
2022/11/16 00:19:26;;;;;;;0.55;0.47;;;10.30;99.90;;;;;;5066750;28;20044;-79
2022/11/16 00:21:53;;;;;;;0.65;0.50;;;10.30;99.90;;;;;;5067740;28;20580;-80
2022/11/16 00:24:19;;;;;;;1.00;0.50;;;10.30;99.90;;;;;;5068129;28;20552;-80
2022/11/16 00:26:46;;;;;;;0.13;0.13;;;10.30;99.90;;;;;;5050649;28;20037;-81
2022/11/16 00:29:15;;;;;;;0.63;0.57;;;10.20;99.90;;;;;;5066817;28;20048;-80
2022/11/16 00:31:41;;;;;;;0.20;0.20;;;10.30;99.90;;;;;;5066765;28;20566;-79
2022/11/16 00:34:07;;;;;;;2.00;1.25;;;10.30;99.90;;;;;;5068744;28;20051;-81
2022/11/16 00:36:32;;;;;;;0.80;0.75;;;10.30;99.90;;;;;;5067741;28;20044;-80
2022/11/16 00:38:58;;;;;;;1.65;0.85;;;10.30;99.90;;;;;;5067988;28;20225;-80
2022/11/16 00:41:23;;;;;;;0.68;0.35;;;10.30;99.90;;;;;;5068943;28;20088;-81
2022/11/16 00:43:49;;;;;;;1.83;1.30;;;10.30;99.90;;;;;;5069919;28;20053;-80
2022/11/16 00:46:15;;;;;;;0.38;0.38;;;10.40;99.90;;;;;;5071963;28;20044;-81
2022/11/16 00:48:40;;;;;;;0.52;0.52;;;10.40;99.90;;;;;;5072007;28;20564;-81
2022/11/16 00:51:06;;;;;;;1.00;0.88;;;10.40;99.90;;;;;;5072734;28;20422;-81
2022/11/16 00:53:32;;;;;;;0.40;0.40;;;10.40;99.90;;;;;;5072218;28;20040;-80
2022/11/16 00:55:57;;;;;;;7.78;1.45;;;10.40;99.90;;;;;;5071803;28;20140;-79
2022/11/16 00:58:23;;;;;;;1.17;1.08;;;10.40;99.90;;;;;;5072115;28;20057;-80
2022/11/16 01:00:49;;;;;;;0.43;0.38;;;10.30;99.90;;;;;;5072590;28;20040;-80
2022/11/16 01:03:15;;;;;;;1.10;0.85;;;10.40;99.90;;;;;;5071862;28;20051;-81
2022/11/16 01:05:40;;;;;;;0.82;0.40;;;10.40;99.90;;;;;;5071833;28;20045;-80
2022/11/16 01:08:06;;;;;;;1.20;0.57;;;10.40;99.90;;;;;;5072089;28;20405;-81
2022/11/16 01:10:32;;;;;;;0.75;0.75;;;10.40;99.90;;;;;;5072220;28;20053;-81
2022/11/16 01:12:57;;;;;;;0.45;0.43;;;10.40;99.90;;;;;;5070835;28;20051;-80
2022/11/16 01:15:25;;;;;;;0.05;0.05;;;10.40;99.90;;;;;;5070514;28;20048;-80
2022/11/16 01:17:52;;;;;;;0.20;0.20;;;10.40;99.90;;;;;;5071514;28;20044;-79
2022/11/16 01:20:20;;;;;;;0.40;0.30;;;10.40;99.90;;;;;;5072011;28;20083;-81
2022/11/16 01:22:46;;;;;;;1.33;1.15;;;10.40;99.90;;;;;;5072290;28;20056;-80
2022/11/16 01:25:13;;;;;;;0.63;0.63;;;10.50;99.90;;;;;;5074552;28;20075;-80
2022/11/16 01:27:40;;;;;;;0.45;0.45;;;10.90;99.90;;;;;;5073971;28;20044;-80
2022/11/16 01:30:07;;;;;;;4.82;0.60;;;10.50;99.90;;;;;;5074047;28;20067;-79
2022/11/16 01:32:33;;;;;;;1.35;0.55;;;10.50;99.90;;;;;;5073155;28;20048;-79
2022/11/16 01:34:59;;;;;;;1.30;1.05;;;10.50;99.90;;;;;;5070619;28;20565;-79
2022/11/16 01:37:25;;;;;;;0.50;0.30;;;10.40;99.90;;;;;;5071894;28;20044;-80
2022/11/16 01:39:51;;;;;;;1.88;1.60;;;10.50;99.90;;;;;;5073076;28;20049;-80
2022/11/16 01:42:23;;;;;;;0.35;0.32;;;10.50;99.90;;;;;;5071710;28;20115;-78
2022/11/16 01:44:48;;;;;;;1.15;0.88;;;10.40;99.90;;;;;;5069252;28;20040;-80
2022/11/16 01:47:16;;;;;;;0.30;0.30;;;10.40;99.90;;;;;;5070099;28;20145;-79
2022/11/16 01:50:09;;;;;;;0.47;0.38;;;10.40;99.90;;;;;;5071086;28;20044;-80
2022/11/16 01:52:40;;;;;;;1.25;0.90;;;10.40;99.90;;;;;;5067108;28;20092;-81
2022/11/16 01:55:06;;;;;;;0.20;0.20;;;10.40;99.90;;;;;;5068996;28;20059;-79
2022/11/16 01:57:36;;;;;;;0.38;0.38;;;10.50;99.90;;;;;;5069766;28;20057;-80
2022/11/16 02:00:05;;;;;;;0.47;0.43;;;10.50;99.90;;;;;;5068745;28;20455;-80
2022/11/16 02:02:31;;;;;;;1.42;0.57;;;10.50;99.90;;;;;;5069890;28;20044;-79
2022/11/16 02:04:58;;;;;;;2.38;0.60;;;10.50;99.90;;;;;;5070392;28;20159;-79
2022/11/16 02:10:59;;;;;;;0.05;0.05;;;10.50;99.90;;;;;;5071822;28;20128;-80
2022/11/16 02:13:37;;;;;;;0.00;0.00;;;10.50;99.90;;;;;;5071263;28;20052;-80
2022/11/16 02:16:34;;;;;;;0.20;0.20;;;10.50;99.90;;;;;;5070045;28;20056;-80
2022/11/16 02:19:50;;;;;;;0.00;0.00;;;10.60;99.90;;;;;;4960803;28;20055;-79
2022/11/16 02:22:57;;;;;;;0.35;0.30;;;10.50;99.90;;;;;;4949069;28;20138;-79
2022/11/16 02:25:35;;;;;;;0.98;0.93;;;10.50;99.90;;;;;;5031241;28;20060;-78
2022/11/16 02:28:06;;;;;;;0.90;0.80;;;10.50;99.90;;;;;;5063424;28;20044;-80
2022/11/16 02:30:33;;;;;;;0.80;0.75;;;10.50;99.90;;;;;;5069071;28;20051;-79
2022/11/16 02:33:12;;;;;;;0.15;0.00;;;10.50;99.90;;;;;;5068144;28;20498;-80
2022/11/16 02:35:43;;;;;;;0.43;0.43;;;10.50;99.90;;;;;;5067466;28;20048;-79
2022/11/16 02:38:21;;;;;;;0.10;0.10;;;10.60;99.90;;;;;;5067630;28;20048;-80
2022/11/16 02:40:53;;;;;;;0.30;0.17;;;10.50;99.90;;;;;;5069109;28;20044;-81
2022/11/16 02:43:28;;;;;;;0.15;0.15;;;10.50;99.90;;;;;;5069969;28;20067;-81
2022/11/16 02:45:58;;;;;;;1.48;1.33;;;10.50;99.90;;;;;;5068715;28;20063;-81
2022/11/16 02:48:29;;;;;;;0.20;0.20;;;10.50;99.90;;;;;;5068457;28;20063;-80
2022/11/16 02:50:56;;;;;;;0.28;0.28;;;10.50;99.90;;;;;;5069324;28;20041;-82
2022/11/16 02:53:23;;;;;;;0.10;0.10;;;10.50;99.90;;;;;;5068661;28;20051;-82
2022/11/16 02:58:25;;;;;;;9.45;2.20;;;10.50;99.90;;;;;;5118862;22;20052;-79
2022/11/16 03:01:19;;;;;;;0.22;0.22;;;10.50;99.90;;;;;;5069793;28;20430;-79
2022/11/16 03:03:53;;;;;;;0.13;0.13;;;10.50;99.90;;;;;;5049309;28;20045;-78
2022/11/16 03:06:26;;;;;;;2.58;0.88;;;10.50;99.90;;;;;;5082737;28;20044;-78
2022/11/16 03:09:10;;;;;;;0.43;0.30;;;10.50;99.90;;;;;;5090371;28;20561;-78
2022/11/16 03:14:32;;;;;;;0.82;0.70;;;10.50;99.90;;;;;;5086062;28;20131;-77
2022/11/16 03:17:00;;;;;;;0.22;0.22;;;10.50;99.90;;;;;;5084946;28;20052;-78
2022/11/16 03:19:32;;;;;;;0.73;0.50;;;10.50;99.90;;;;;;5085561;28;20048;-77
2022/11/16 03:22:07;;;;;;;0.38;0.38;;;10.50;99.90;;;;;;5085269;28;20048;-78
2022/11/16 03:24:33;;;;;;;0.00;0.00;;;10.50;99.90;;;;;;5084910;28;20060;-76
2022/11/16 03:27:04;;;;;;;0.90;0.73;;;10.50;99.90;;;;;;5046524;28;20494;-75
2022/11/16 03:29:35;;;;;;;0.40;0.40;;;10.50;99.90;;;;;;5064880;28;20052;-78
2022/11/16 03:32:27;;;;;;;0.38;0.35;;;10.60;99.90;;;;;;5072852;28;20359;-79
2022/11/16 03:34:59;;;;;;;1.13;0.52;;;10.40;99.90;;;;;;5066587;28;20657;-77
2022/11/16 03:37:25;;;;;;;2.17;0.80;;;10.40;99.90;;;;;;5085420;28;20147;-79
2022/11/16 03:39:52;;;;;;;0.50;0.50;;;10.40;99.90;;;;;;5084183;28;20059;-79
2022/11/16 03:42:20;;;;;;;0.30;0.25;;;10.40;99.90;;;;;;5085184;28;20069;-78
2022/11/16 03:44:48;;;;;;;1.77;0.63;;;10.40;99.90;;;;;;5064658;28;20086;-77
2022/11/16 03:47:14;;;;;;;0.10;0.10;;;10.40;99.90;;;;;;5064604;28;20070;-76
2022/11/16 03:49:44;;;;;;;1.35;0.73;;;10.40;99.90;;;;;;5065195;28;20053;-79
2022/11/16 03:52:10;;;;;;;1.10;0.38;;;10.40;99.90;;;;;;5064621;28;20047;-78
2022/11/16 03:54:36;;;;;;;0.30;0.30;;;10.40;99.90;;;;;;5045901;28;20044;-77
2022/11/16 03:57:01;;;;;;;1.98;0.88;;;10.30;99.90;;;;;;5069998;28;20085;-78
2022/11/16 03:59:27;;;;;;;0.10;0.10;;;10.30;99.90;;;;;;5083991;28;20047;-77
2022/11/16 04:01:52;;;;;;;0.70;0.55;;;10.30;99.90;;;;;;5084748;28;20040;-78
2022/11/16 04:29:14;;;;;;;0.75;0.32;;;10.30;99.90;;;;;;5070251;28;20047;-77
2022/11/16 04:39:59;;;;;;;1.45;1.17;;;10.30;99.90;;;;;;5086801;28;20044;-79
2022/11/16 04:42:25;;;;;;;0.40;0.40;;;10.30;99.90;;;;;;5086513;28;20044;-77
2022/11/16 04:47:34;;;;;;;2.08;1.08;;;10.30;99.90;;;;;;5087376;28;20052;-79
2022/11/16 04:50:00;;;;;;;0.43;0.35;;;10.30;99.90;;;;;;5087860;28;20123;-78
2022/11/16 04:52:25;;;;;;;0.68;0.55;;;10.30;99.90;;;;;;5085230;28;20064;-77
2022/11/16 04:54:51;;;;;;;0.25;0.25;;;10.60;99.90;;;;;;5083531;28;20082;-78
2022/11/16 04:57:17;;;;;;;0.30;0.30;;;10.30;99.90;;;;;;5082749;28;20159;-78
2022/11/16 04:59:42;;;;;;;0.28;0.28;;;10.30;99.90;;;;;;5082319;28;20044;-77
2022/11/16 05:02:08;;;;;;;0.63;0.57;;;10.30;99.90;;;;;;5065422;28;20056;-77
2022/11/16 05:04:39;;;;;;;0.73;0.73;;;10.30;99.90;;;;;;5083519;28;20044;-79
2022/11/16 05:07:09;;;;;;;0.35;0.35;;;10.30;99.90;;;;;;5065495;28;20079;-78
2022/11/16 05:09:41;;;;;;;1.20;0.93;;;10.30;99.90;;;;;;5066542;28;20146;-78
2022/11/16 05:12:20;;;;;;;0.40;0.32;;;10.30;99.90;;;;;;5083036;28;20079;-78
2022/11/16 05:14:46;;;;;;;0.20;0.20;;;10.30;99.90;;;;;;5082985;28;20097;-78
2022/11/16 05:17:12;;;;;;;0.63;0.63;;;10.30;99.90;;;;;;5082942;28;20044;-77
2022/11/16 05:22:23;;;;;;;0.52;0.52;;;10.30;99.90;;;;;;5083013;28;20130;-78
2022/11/16 05:24:49;;;;;;;0.10;0.10;;;10.30;99.90;;;;;;5083631;28;20044;-79
2022/11/16 05:27:18;;;;;;;0.52;0.52;;;10.20;99.90;;;;;;5082873;28;20521;-78
2022/11/16 05:29:44;;;;;;;1.25;0.73;;;10.20;99.90;;;;;;5084899;28;20059;-78
2022/11/16 05:32:11;;;;;;;2.17;1.30;;;10.20;99.90;;;;;;5069739;28;20039;-78
2022/11/16 05:34:38;;;;;;;0.73;0.65;;;10.20;99.90;;;;;;5086347;28;20048;-79
2022/11/16 05:37:04;;;;;;;2.55;1.13;;;10.20;99.90;;;;;;5086550;28;20040;-79
2022/11/16 05:39:29;;;;;;;3.63;1.00;;;10.30;99.90;;;;;;5088118;28;20040;-79
2022/11/16 05:41:55;;;;;;;0.30;0.30;;;10.30;99.90;;;;;;5088439;28;20036;-80
2022/11/16 05:44:21;;;;;;;0.75;0.38;;;10.30;99.90;;;;;;5068806;28;20521;-78
2022/11/16 05:46:48;;;;;;;0.45;0.30;;;10.20;99.90;;;;;;5052235;28;20055;-78
2022/11/16 05:49:14;;;;;;;0.45;0.45;;;10.30;99.90;;;;;;5087118;28;20044;-77
2022/11/16 05:51:41;;;;;;;0.57;0.57;;;10.20;99.90;;;;;;5074616;28;20052;-78
2022/11/16 05:54:07;;;;;;;1.65;1.20;;;10.30;99.90;;;;;;5096935;28;20036;-79
2022/11/16 05:56:33;;;;;;;1.15;1.05;;;10.30;99.90;;;;;;5095724;28;20044;-79
2022/11/16 05:58:59;;;;;;;1.00;0.95;;;10.30;99.90;;;;;;5113502;28;20047;-77
2022/11/16 06:01:25;;;;;;;0.30;0.30;;;10.30;99.90;;;;;;5115290;28;20039;-78
2022/11/16 06:03:51;;;;;;;1.50;0.95;;;10.30;99.90;;;;;;5110828;28;20048;-78
2022/11/16 06:06:18;;;;;;;0.88;0.75;;;10.20;99.90;;;;;;5107617;28;20078;-78
2022/11/16 06:08:44;;;;;;;1.80;0.70;;;10.30;99.90;;;;;;5089899;28;20055;-80
2022/11/16 06:11:10;;;;;;;0.70;0.63;;;10.20;99.90;;;;;;5088026;28;20448;-78
2022/11/16 06:13:36;;;;;;;1.92;1.27;;;10.20;99.90;;;;;;5088037;28;20044;-78
2022/11/16 06:16:03;;;;;;;1.00;0.50;;;11.00;99.90;;;;;;5087315;28;20109;-78
2022/11/16 06:18:29;;;;;;;0.95;0.88;;;10.30;99.90;;;;;;5087611;28;20078;-79
2022/11/16 06:20:55;;;;;;;1.13;0.73;;;10.30;99.90;;;;;;5084681;28;20490;-78
2022/11/16 06:23:20;;;;;;;0.32;0.32;;;10.30;99.90;;;;;;5083408;28;20044;-79
2022/11/16 06:25:50;;;;;;;0.60;0.60;;;10.40;99.90;;;;;;5083375;28;20036;-80
2022/11/16 06:28:16;;;;;;;0.63;0.63;;;10.40;99.90;;;;;;5085394;28;20047;-78
2022/11/16 06:30:42;;;;;;;1.42;0.98;;;10.40;99.90;;;;;;5086567;28;20097;-78
2022/11/16 06:33:08;;;;;;;0.40;0.40;;;10.40;99.90;;;;;;5087718;28;20055;-77
2022/11/16 06:35:33;;;;;;;0.68;0.52;;;10.40;99.90;;;;;;5088324;28;20509;-78
2022/11/16 06:37:59;;;;;;;0.65;0.60;;;10.30;99.90;;;;;;5090739;28;20052;-80
2022/11/16 06:40:24;;;;;;;1.95;0.98;;;10.40;99.90;;;;;;5088133;28;20032;-79
2022/11/16 06:42:50;;;;;;;0.45;0.45;;;10.40;99.90;;;;;;5087600;28;20048;-79
2022/11/16 06:45:16;;;;;;;0.65;0.50;;;10.40;99.90;;;;;;5068807;28;20119;-78
2022/11/16 06:47:41;;;;;;;0.73;0.60;;;11.10;99.90;;;;;;5085594;28;20040;-78
2022/11/16 06:50:08;;;;;;;0.73;0.63;;;10.40;99.90;;;;;;5085223;28;20072;-77
2022/11/16 06:52:33;;;;;;;1.70;1.23;;;10.40;99.90;;;;;;5067514;28;20058;-79
2022/11/16 06:54:59;;;;;;;1.00;0.90;;;10.50;99.90;;;;;;5085482;28;20040;-80
2022/11/16 06:57:24;;;;;;;0.60;0.52;;;10.40;99.90;;;;;;5086049;28;20525;-79
2022/11/16 06:59:50;;;;;;;0.63;0.52;;;10.40;99.90;;;;;;5085360;28;20052;-79
2022/11/16 07:02:21;;;;;;;0.73;0.73;;;10.40;99.90;;;;;;5085747;28;20044;-77
2022/11/16 07:04:47;;;;;;;0.80;0.73;;;10.50;99.90;;;;;;5086199;28;20052;-79
2022/11/16 07:07:14;;;;;;;0.35;0.35;;;10.40;99.90;;;;;;5085378;28;20044;-79
2022/11/16 07:09:41;;;;;;;0.32;0.30;;;10.30;99.90;;;;;;5084670;28;20048;-78
2022/11/16 07:12:07;;;;;;;0.95;0.32;;;10.40;99.90;;;;;;5085168;28;20513;-78
2022/11/16 07:14:33;;;;;;;0.35;0.25;;;10.30;99.90;;;;;;5066703;28;20040;-77
2022/11/16 07:16:58;;;;;;;0.47;0.47;;;10.30;99.90;;;;;;5085038;28;20075;-77
2022/11/16 07:19:24;;;;;;;0.10;0.10;;;10.30;99.90;;;;;;5067815;28;20101;-78
2022/11/16 07:21:49;;;;;;;0.10;0.10;;;10.30;99.90;;;;;;5085987;28;20063;-80
2022/11/16 07:24:15;;;;;;;2.03;1.23;;;10.30;99.90;;;;;;5087065;28;20463;-78
2022/11/16 07:26:40;;;;;;;1.95;1.08;;;10.40;99.90;;;;;;5086482;28;20129;-78
2022/11/16 07:29:06;;;;;;;6.55;0.52;;;10.30;99.90;;;;;;5087044;28;20043;-79
2022/11/16 07:31:32;;;;;;;0.22;0.20;;;10.30;99.90;;;;;;5082966;28;20051;-78
2022/11/16 07:33:57;;;;;;;0.40;0.40;;;10.30;99.90;;;;;;5087660;28;20055;-78
2022/11/16 07:36:23;;;;;;;2.55;1.15;;;10.40;99.90;;;;;;5087844;28;20056;-80
2022/11/16 07:38:49;;;;;;;0.90;0.47;;;10.30;99.90;;;;;;5088446;28;20040;-79
2022/11/16 07:41:17;;;;;;;0.52;0.47;;;10.30;99.90;;;;;;5089006;28;20040;-79
2022/11/16 07:43:43;;;;;;;0.30;0.30;;;10.30;99.90;;;;;;5093041;28;20048;-79
2022/11/16 07:46:14;;;;;;;2.15;0.88;;;10.30;99.90;;;;;;5093054;28;20044;-79
2022/11/16 07:48:41;;;;;;;0.38;0.30;;;10.30;99.90;;;;;;5094779;28;20118;-79
2022/11/16 07:51:13;;;;;;;0.38;0.38;;;10.30;99.90;;;;;;5093997;28;20047;-79
2022/11/16 07:53:40;;;;;;;1.17;1.08;;;10.30;99.90;;;;;;5072336;28;20127;-79
2022/11/16 07:56:06;;;;;;;0.85;0.50;;;10.40;99.90;;;;;;5089392;28;20040;-80
2022/11/16 07:58:33;;;;;;;0.63;0.47;;;10.30;99.90;;;;;;5089703;28;20107;-78
2022/11/16 08:01:13;;;;;;;0.60;0.60;;;10.30;99.90;;;;;;5073039;28;20095;-80
2022/11/16 08:03:41;;;;;;;1.17;1.02;;;10.30;99.90;;;;;;5074739;28;20047;-78
2022/11/16 08:06:15;;;;;;;0.50;0.35;;;10.30;99.90;;;;;;5095302;28;20051;-79
2022/11/16 08:08:40;;;;;;;3.80;1.08;;;10.30;99.90;;;;;;5093219;28;20051;-81
2022/11/16 08:11:08;;;;;;;0.15;0.15;;;10.30;99.90;;;;;;5092723;28;20109;-79
2022/11/16 08:13:37;;;;;;;2.80;1.55;;;11.20;99.90;;;;;;5090870;28;20058;-78
2022/11/16 08:16:08;;;;;;;0.73;0.50;;;10.40;99.90;;;;;;5088062;28;20043;-78
2022/11/16 08:18:35;;;;;;;0.85;0.57;;;10.30;99.90;;;;;;5049857;28;20054;-76
2022/11/16 08:21:03;;;;;;;0.15;0.15;;;10.30;99.90;;;;;;5086584;28;20462;-77
2022/11/16 08:23:29;;;;;;;1.88;0.73;;;10.20;99.90;;;;;;5092265;28;20063;-77
2022/11/16 08:26:04;;;;;;;3.17;2.35;;;10.50;99.90;;;;;;5088348;28;20048;-77
2022/11/16 08:28:31;;;;;;;0.35;0.35;;;10.30;99.90;;;;;;5089489;28;20106;-79
2022/11/16 08:30:57;;;;;;;0.20;0.20;;;10.20;99.90;;;;;;5088301;28;20088;-78
2022/11/16 08:33:24;;;;;;;0.60;0.60;;;10.30;99.90;;;;;;5088596;28;20063;-78
2022/11/16 08:35:51;;;;;;;1.75;1.45;;;10.30;99.90;;;;;;5086112;28;20058;-78
2022/11/16 08:38:19;;;;;;;0.22;0.10;;;10.30;99.90;;;;;;5084565;28;20032;-79
2022/11/16 08:40:46;;;;;;;0.52;0.52;;;11.30;99.90;;;;;;5085895;28;20040;-77
2022/11/16 08:43:12;;;;;;;2.33;0.60;;;10.30;99.90;;;;;;5087091;28;20059;-78
2022/11/16 08:45:38;;;;;;;0.35;0.28;;;10.20;99.90;;;;;;5088171;28;20044;-79
2022/11/16 08:48:06;;;;;;;1.45;1.35;;;10.20;99.90;;;;;;5051928;28;20047;-77
2022/11/16 08:50:32;;;;;;;0.00;0.00;;;10.20;99.90;;;;;;5086837;28;20072;-78
2022/11/16 08:52:58;;;;;;;0.63;0.50;;;10.20;99.90;;;;;;5086692;28;20478;-78
2022/11/16 08:55:24;;;;;;;1.65;1.33;;;10.20;99.90;;;;;;5087925;28;20052;-77
2022/11/16 08:57:50;;;;;;;1.10;0.77;;;10.20;99.90;;;;;;5087881;28;20589;-78
2022/11/16 09:00:16;;;;;;;0.30;0.30;;;10.20;99.90;;;;;;5089964;28;20048;-76
2022/11/16 09:02:42;;;;;;;0.90;0.85;;;10.20;99.90;;;;;;5085574;28;20106;-78
2022/11/16 09:05:10;;;;;;;3.25;0.90;;;10.30;99.90;;;;;;5085920;28;20079;-77
2022/11/16 09:07:36;;;;;;;1.38;0.52;;;10.30;99.90;;;;;;5089039;28;20126;-77
2022/11/16 09:10:03;;;;;;;0.32;0.32;;;10.30;99.90;;;;;;5090214;28;20121;-79
2022/11/16 09:12:28;;;;;;;0.85;0.55;;;10.40;99.90;;;;;;5088746;28;20048;-76
2022/11/16 09:14:54;;;;;;;1.15;0.60;;;10.40;99.90;;;;;;5087768;28;20040;-78
2022/11/16 09:17:29;;;;;;;0.52;0.50;;;10.40;99.90;;;;;;5085405;28;20490;-77
2022/11/16 09:19:54;;;;;;;0.80;0.65;;;10.50;99.90;;;;;;5085966;28;20097;-77
2022/11/16 09:22:20;;;;;;;1.05;0.75;;;10.60;99.90;;;;;;5085358;28;20070;-77
2022/11/16 09:24:46;;;;;;;0.30;0.30;;;10.60;99.90;;;;;;5084684;28;20051;-78
2022/11/16 09:27:11;;;;;;;0.50;0.50;;;10.60;99.90;;;;;;5084837;28;20055;-77
2022/11/16 09:29:37;;;;;;;0.50;0.50;;;10.70;99.90;;;;;;5084378;28;20397;-77
2022/11/16 09:32:03;;;;;;;1.15;0.73;;;10.70;99.90;;;;;;5084766;28;20481;-77
2022/11/16 09:34:29;;;;;;;1.92;1.45;;;10.80;99.90;;;;;;5084346;28;20044;-76
2022/11/16 09:36:54;;;;;;;3.30;1.40;;;10.80;99.90;;;;;;5085116;28;20265;-77
2022/11/16 09:39:20;;;;;;;0.35;0.35;;;10.80;99.90;;;;;;5084583;28;20040;-78
2022/11/16 09:42:30;;;;;;;1.42;1.08;;;11.60;99.90;;;;;;5084524;28;20086;-78
2022/11/16 09:45:05;;;;;;;8.73;2.22;;;11.00;99.90;;;;;;5080898;28;20156;-76
2022/11/16 09:47:50;;;;;;;1.60;0.68;;;11.00;99.90;;;;;;5086263;28;20056;-77
2022/11/16 09:50:41;;;;;;;1.83;0.65;;;11.10;99.90;;;;;;5085333;28;20072;-77
2022/11/16 09:53:36;;;;;;;1.00;0.57;;;11.20;99.90;;;;;;5084853;28;20048;-77
2022/11/16 09:56:07;;;;;;;2.63;1.40;;;11.30;99.90;;;;;;5087643;28;20054;-77
2022/11/16 09:58:59;;;;;;;0.68;0.15;;;11.30;99.90;;;;;;5088226;28;20068;-78
2022/11/16 10:01:24;;;;;;;0.75;0.40;;;11.40;99.90;;;;;;5088129;28;20044;-78
2022/11/16 10:04:03;;;;;;;1.15;0.63;;;11.40;99.90;;;;;;5088776;28;20044;-78
2022/11/16 10:06:36;;;;;;;1.63;0.63;;;11.30;99.90;;;;;;5089906;28;20083;-76
2022/11/16 10:09:02;;;;;;;1.65;1.42;;;11.40;99.90;;;;;;5088147;28;20047;-78
2022/11/16 10:11:37;;;;;;;0.68;0.63;;;12.20;99.90;;;;;;5089953;28;20897;-76
2022/11/16 10:14:34;;;;;;;0.17;0.17;;;11.50;99.90;;;;;;5088601;28;20402;-77
2022/11/16 10:17:13;;;;;;;1.63;0.80;;;11.70;99.90;;;;;;5069759;28;20066;-78
2022/11/16 10:20:18;;;;;;;1.80;1.15;;;11.80;99.90;;;;;;5086938;28;20078;-78
2022/11/16 10:23:14;;;;;;;0.50;0.50;;;11.60;99.90;;;;;;5086618;28;20084;-79
2022/11/16 10:25:45;;;;;;;7.50;1.07;;;11.50;99.90;;;;;;5085688;28;20539;-81
2022/11/16 10:28:35;;;;;;;1.30;0.50;;;11.50;99.90;;;;;;5086384;28;20398;-77
2022/11/16 10:31:38;;;;;;;1.40;0.80;;;11.50;99.90;;;;;;5087256;28;20048;-78
2022/11/16 10:34:07;;;;;;;2.63;1.15;;;11.40;99.90;;;;;;5086214;28;20044;-77
2022/11/16 10:36:35;;;;;;;0.63;0.55;;;11.50;99.90;;;;;;5086491;28;20513;-77
2022/11/16 10:39:01;;;;;;;1.30;0.80;;;11.50;99.90;;;;;;5068930;28;20043;-78
2022/11/16 10:41:33;;;;;;;1.35;1.17;;;11.50;99.90;;;;;;5086308;28;20781;-77
2022/11/16 10:43:59;;;;;;;2.25;0.75;;;11.50;99.90;;;;;;5068435;28;20407;-77
2022/11/16 10:46:39;;;;;;;1.67;1.10;;;11.60;99.90;;;;;;5086110;28;20070;-77
2022/11/16 10:49:24;;;;;;;1.35;0.93;;;11.60;99.90;;;;;;5067790;28;20122;-78
2022/11/16 10:51:49;;;;;;;1.08;0.98;;;11.70;99.90;;;;;;5067823;28;20481;-78
2022/11/16 10:54:17;;;;;;;0.73;0.73;;;11.70;99.90;;;;;;5085895;28;20043;-78
2022/11/16 10:56:47;;;;;;;1.15;0.75;;;12.00;99.90;;;;;;5085161;28;20067;-77
2022/11/16 10:59:16;;;;;;;1.23;0.85;;;12.00;99.90;;;;;;5066886;28;20040;-77
2022/11/16 11:01:50;;;;;;;3.10;1.10;;;12.00;99.90;;;;;;5085070;28;20429;-80
2022/11/16 11:04:23;;;;;;;0.88;0.68;;;11.90;99.90;;;;;;5050155;28;20072;-80
2022/11/16 11:06:54;;;;;;;2.35;1.42;;;11.90;99.90;;;;;;5084660;28;20052;-78
2022/11/16 11:09:40;;;;;;;3.55;1.38;;;12.00;99.90;;;;;;5084689;28;20457;-77
2022/11/16 11:12:37;;;;;;;2.27;1.20;;;12.00;99.90;;;;;;5084545;28;20051;-78
2022/11/16 11:15:11;;;;;;;0.43;0.20;;;12.10;99.90;;;;;;5084653;28;20109;-78
2022/11/16 11:17:42;;;;;;;0.60;0.60;;;11.90;99.90;;;;;;5083625;28;20044;-80
2022/11/16 11:20:13;;;;;;;0.50;0.50;;;12.30;99.90;;;;;;5084519;28;20056;-79
2022/11/16 11:22:56;;;;;;;1.40;1.08;;;12.10;99.90;;;;;;5084434;28;20082;-78
2022/11/16 11:25:29;;;;;;;3.55;0.80;;;12.10;99.90;;;;;;5083749;28;20051;-80
2022/11/16 11:28:21;;;;;;;1.67;0.88;;;12.00;99.90;;;;;;5084112;28;20062;-79
2022/11/16 11:31:15;;;;;;;1.05;0.98;;;11.80;99.90;;;;;;5083936;28;20085;-79
2022/11/16 11:33:51;;;;;;;0.85;0.75;;;11.50;99.90;;;;;;5083944;28;20051;-79
2022/11/16 11:36:25;;;;;;;1.88;0.47;;;11.30;99.90;;;;;;5083958;28;20126;-79
2022/11/16 11:39:20;;;;;;;0.50;0.50;;;11.20;99.90;;;;;;5083926;28;20104;-79
2022/11/16 11:42:19;;;;;;;0.93;0.63;;;11.30;99.90;;;;;;5075853;28;20109;-79
2022/11/16 11:45:01;;;;;;;1.40;0.73;;;11.40;99.90;;;;;;5069534;28;20421;-79
2022/11/16 11:47:51;;;;;;;0.00;0.00;;;11.50;99.90;;;;;;5083554;28;20043;-78
2022/11/16 11:50:51;;;;;;;0.95;0.55;;;11.50;99.90;;;;;;5083470;28;20398;-81
2022/11/16 11:53:46;;;;;;;0.30;0.30;;;11.60;99.90;;;;;;5083171;28;20048;-79
2022/11/16 11:56:13;;;;;;;0.55;0.55;;;11.60;99.90;;;;;;5083301;28;20490;-78
2022/11/16 11:58:41;;;;;;;0.32;0.30;;;11.60;99.90;;;;;;5082919;28;20082;-78
2022/11/16 12:01:33;;;;;;;0.10;0.10;;;11.80;99.90;;;;;;5084216;28;20440;-78
2022/11/16 12:04:32;;;;;;;0.00;0.00;;;12.10;99.90;;;;;;5084728;28;20135;-79
2022/11/16 12:07:19;;;;;;;0.05;0.05;;;12.30;99.90;;;;;;5084264;28;20247;-79
2022/11/16 12:10:06;;;;;;;2.33;0.40;;;12.70;99.90;;;;;;5084825;28;20078;-78
2022/11/16 12:12:50;;;;;;;;;;;12.90;99.90;;;;;;5066905;28;20063;-79
2022/11/16 12:15:38;;;;;;;0.52;0.50;;;13.10;99.90;;;;;;5084142;28;20359;-79
2022/11/16 12:18:44;;;;;;;0.10;0.10;;;13.10;88.90;;;;;;5083592;28;20048;-80
2022/11/16 12:21:21;;;;;;;0.40;0.30;;;13.00;99.90;;;;;;5082920;28;20468;-78
2022/11/16 12:24:27;;;;;;;0.30;0.28;;;13.20;99.90;;;;;;5064941;28;20059;-79
2022/11/16 12:27:41;;;;;;;0.88;0.43;;;13.50;99.90;;;;;;5083493;28;20046;-79
2022/11/16 12:30:22;;;;;;;0.20;0.20;;;13.60;1.00;;;;;;5078756;28;20114;-79
2022/11/16 12:33:20;;;;;;;0.15;0.15;;;13.60;1.00;;;;;;5082911;28;20058;-79
2022/11/16 12:35:59;;;;;;;0.30;0.30;;;13.30;99.90;;;;;;5083258;28;20518;-79
2022/11/16 12:38:27;;;;;;;0.30;0.30;;;13.40;99.90;;;;;;5066027;28;20048;-79
2022/11/16 12:41:14;;;;;;;0.32;0.20;;;13.80;99.90;;;;;;5087363;28;20051;-78
2022/11/16 12:44:07;;;;;;;0.20;0.20;;;14.00;99.90;;;;;;5087926;28;20506;-79
2022/11/16 12:46:57;;;;;;;0.80;0.60;;;13.90;99.90;;;;;;5088692;28;20048;-80
2022/11/16 12:50:17;;;;;;;0.00;0.00;;;14.00;1.00;;;;;;5070125;28;20070;-79
2022/11/16 12:53:10;;;;;;;3.00;0.77;;;14.00;99.90;;;;;;5052648;28;20537;-78
2022/11/16 12:56:23;;;;;;;0.65;0.60;;;14.00;1.00;;;;;;5088085;28;20123;-78
2022/11/16 12:59:00;;;;;;;0.08;0.08;;;14.10;99.90;;;;;;5069606;28;20045;-80
2022/11/16 13:02:03;;;;;;;1.05;0.77;;;14.30;99.90;;;;;;5087524;28;20119;-79
2022/11/16 13:04:39;;;;;;;0.00;0.00;;;13.80;99.90;;;;;;5087821;28;20057;-78
2022/11/16 13:07:17;;;;;;;;;;;14.00;1.00;;;;;;5088105;28;20509;-78
2022/11/16 13:09:54;;;;;;;0.00;0.00;;;14.00;1.00;;;;;;5087461;28;19979;-79
2022/11/16 13:12:25;;;;;;;2.15;0.73;;;14.00;99.90;;;;;;5088206;28;20398;-78
2022/11/16 13:14:55;;;;;;;0.15;0.15;;;13.90;99.90;;;;;;5087665;28;20048;-80
2022/11/16 13:17:25;;;;;;;1.45;0.40;;;14.20;1.00;;;;;;5086967;28;20052;-79
2022/11/16 13:20:06;;;;;;;0.10;0.10;;;14.00;1.00;;;;;;5068090;28;20048;-80
2022/11/16 13:22:35;;;;;;;2.45;0.63;;;14.00;2.70;;;;;;5086160;28;20052;-79
2022/11/16 13:25:07;;;;;;;0.25;0.20;;;14.10;99.90;;;;;;5067378;28;20050;-79
2022/11/16 13:27:41;;;;;;;0.25;0.20;;;14.00;99.90;;;;;;5085967;28;20145;-81
2022/11/16 13:30:20;;;;;;;0.00;0.00;;;14.00;99.90;;;;;;5085898;28;20437;-78
2022/11/16 13:33:12;;;;;;;0.10;0.10;;;14.00;99.90;;;;;;5086092;28;20104;-79
2022/11/16 13:35:38;;;;;;;0.25;0.25;;;14.10;89.10;;;;;;5086078;28;20056;-79
2022/11/16 13:38:09;;;;;;;0.20;0.20;;;13.70;99.90;;;;;;5086010;28;20045;-78
2022/11/16 13:40:35;;;;;;;0.00;0.00;;;13.90;99.90;;;;;;5085873;28;20055;-78
2022/11/16 13:43:10;;;;;;;0.75;0.75;;;13.70;99.90;;;;;;5067160;28;20048;-77
2022/11/16 13:45:55;;;;;;;0.20;0.13;;;13.90;99.90;;;;;;5067268;28;20433;-80
2022/11/16 13:48:30;;;;;;;0.00;0.00;;;13.90;99.90;;;;;;5085474;28;20048;-79
2022/11/16 13:51:02;;;;;;;0.95;0.85;;;13.90;99.90;;;;;;5085890;28;20394;-78
2022/11/16 13:53:46;;;;;;;0.25;0.10;;;13.90;1.00;;;;;;5085753;28;20047;-78
2022/11/16 13:56:12;;;;;;;0.13;0.13;;;14.10;1.00;;;;;;5085575;28;20075;-78
2022/11/16 13:58:44;;;;;;;2.47;0.38;;;14.10;95.50;;;;;;5085784;28;20062;-79
2022/11/16 14:01:14;;;;;;;0.15;0.15;;;13.70;99.90;;;;;;5085338;28;20143;-78
2022/11/16 14:03:45;;;;;;;0.20;0.20;;;13.90;99.90;;;;;;5085116;28;20109;-78